Flight Track Log - Related Links

Times and Time Zones

All times are in EDT time to prevent confusion due to time zone crossing. See the SWA688 flight status page for this flight to view local times or setup timezone preferences in your user account.

Time Position Orientation Groundspeed Altitude Reporting Facility
EDT Latitude Longitude Course Direction KTS MPH feet Rate Location/Type
08:15PM 33.4333 -112.0000 90° East 177 204 1,700  Level Phoenix TRACON
08:15PM 33.4333 -111.9333 90° East 186 214 3,400 1,944 Climbing Phoenix TRACON
08:16PM 33.4333 -111.8667 90° East 247 284 5,200 2,421 Climbing Phoenix TRACON
08:17PM 33.3667 -111.8333 157° South 255 293 8,000 2,137 Climbing Phoenix TRACON
08:19PM 33.3064 -111.9053 225° Southwest 275 316 10,400 2,108 Climbing Albuquerque Center
08:20PM 33.3250 -112.0114 282° West 320 368 13,200 2,341 Climbing Albuquerque Center
08:21PM 33.3419 -112.1167 281° West 324 373 15,200 2,000 Climbing Albuquerque Center
08:22PM 33.3603 -112.2375 280° West 363 418 17,300 2,129 Climbing Albuquerque Center
08:23PM 33.3789 -112.3544 281° West 361 415 19,600 2,032 Climbing Albuquerque Center
08:24PM 33.3961 -112.4742 280° West 363 418 21,500 1,756 Climbing Albuquerque Center
08:25PM 33.4044 -112.6189 274° West 384 442 23,200 1,707 Climbing Albuquerque Center
08:26PM 33.4142 -112.7464 275° West 385 443 25,000 1,452 Climbing Albuquerque Center
08:27PM 33.4247 -112.8772 276° West 390 449 26,200 1,122 Climbing Albuquerque Center
08:28PM 33.4217 -113.0150 269° West 412 474 27,300 1,268 Climbing Albuquerque Center
08:29PM 33.4681 -113.1753 289° West 436 502 28,800 1,306 Climbing Albuquerque Center
08:30PM 33.5347 -113.2978 303° West 440 506 30,000 1,171 Climbing Albuquerque Center
08:31PM 33.6003 -113.4231 302° West 440 506 31,200 976 Climbing Albuquerque Center
08:32PM 33.6608 -113.5356 303° West 443 510 32,000 387 Climbing Albuquerque Center
08:33PM 33.7389 -113.6844 302° West 441 507 32,000  Level Albuquerque Center
08:34PM 33.8011 -113.8050 302° West 432 497 32,000 49 Level Albuquerque Center
08:35PM 33.8453 -113.9361 292° West 425 489 32,100  Climbing Albuquerque Center
08:36PM 33.8864 -114.0514 293° West 428 493 32,000 -49 Descending Los Angeles Center
08:37PM 33.9142 -114.2119 282° West 415 478 32,000  Level Los Angeles Center
08:38PM 33.9336 -114.3506 280° West 417 480 32,000  Level Los Angeles Center
08:39PM 33.9503 -114.4883 278° West 417 480 32,000  Level Los Angeles Center
08:40PM 33.9700 -114.6292 280° West 421 484 32,000  Level Los Angeles Center
08:41PM 33.9894 -114.7697 280° West 423 487 32,000  Level Los Angeles Center
08:42PM 34.0108 -114.9364 279° West 423 487 32,000  Level Los Angeles Center
08:44PM 34.0272 -115.0725 278° West 418 481 32,000  Level Los Angeles Center
08:45PM 34.0436 -115.2069 278° West 412 474 32,000  Level Los Angeles Center
08:46PM 34.0614 -115.3400 279° West 407 468 32,000  Level Los Angeles Center
08:47PM 34.0758 -115.4700 278° West 401 461 32,000 -581 Level Los Angeles Center
08:48PM 34.0942 -115.6278 278° West 399 459 30,800 -976 Descending Los Angeles Center
08:49PM 34.1094 -115.7622 278° West 399 459 30,000 -387 Descending Los Angeles Center
08:50PM 34.0942 -115.8964 262° West 404 465 30,000  Level Los Angeles Center
08:51PM 34.0739 -116.0275 259° West 402 463 30,000  Level Los Angeles Center
08:52PM 34.0547 -116.1553 260° West 394 453 30,000  Level Los Angeles Center
08:53PM 34.0358 -116.2833 260° West 393 452 30,000 -194 Level Los Angeles Center
08:54PM 34.0128 -116.4364 260° West 392 451 29,600 -1,452 Descending Los Angeles Center
08:55PM 33.9967 -116.5708 262° West 399 459 27,000 -2,419 Descending Los Angeles Center
08:56PM 33.9875 -116.7056 265° West 406 467 24,600 -2,468 Descending Los Angeles Center
08:57PM 33.9753 -116.8492 264° West 386 444 21,900 -2,411 Descending Los Angeles Center
08:58PM 33.9667 -116.9333 263° West 364 419 20,300 -2,229 Descending Southern California TRACON
08:59PM 33.9667 -117.0500 270° West 357 411 18,000 -1,650 Descending Southern California TRACON
09:00PM 33.9500 -117.1667 260° West 337 388 17,000 -550 Descending Southern California TRACON
09:01PM 33.9333 -117.2833 260° West 317 365 16,900 -550 Descending Southern California TRACON
09:02PM 33.9333 -117.3833 270° West 307 353 15,900 -1,289 Descending Southern California TRACON
09:03PM 33.9667 -117.4667 296° West 302 348 14,300 -1,636 Descending Southern California TRACON
09:04PM 34.0000 -117.5667 292° West 291 335 12,600 -1,850 Descending Southern California TRACON
09:05PM 34.0167 -117.6667 281° West 295 339 10,600 -1,550 Descending Southern California TRACON
09:06PM 34.0000 -117.7500 256° West 280 322 9,500 -1,200 Descending Southern California TRACON
09:07PM 33.9833 -117.8500 259° West 274 315 8,200 -1,200 Descending Southern California TRACON
09:08PM 33.9833 -117.9333 270° West 274 315 7,100 -850 Descending Southern California TRACON
09:09PM 33.9667 -118.0167 256° West 244 281 6,500 -850 Descending Southern California TRACON
09:10PM 33.9667 -118.1000 270° West 230 265 5,400 -941 Descending Southern California TRACON
09:10PM 33.9617 -118.1503 263° West 238 274 4,900 -1,038 Descending Los Angeles Center
09:11PM 33.9542 -118.2158 262° West 218 251 3,600 -1,500 Descending Los Angeles Center
09:13PM 33.9478 -118.2806 263° West 205 236 1,800 -1,355 Descending Los Angeles Center
09:14PM 33.9422 -118.3378 263° West 187 215 800 -823 Descending Los Angeles Center
09:15PM 33.9386 -118.3822 264° West 152 175 100 -677 Descending Los Angeles Center
09:17PM 33.9333 -118.4000 270° West  Level FlightAware Approximate

Login

Don't have an account? Register now (free) for customized features, flight alerts, and more!